Time;durP1;ratioP1;P1;durP2;ratioP2;P2;SDS_P1;SDS_P2;PMS_P1;PMS_P2;Temp;Humidity;BMP_temperature;BMP_pressure;BME280_temperature;BME280_humidity;BME280_pressure;Samples;Min_cycle;Max_cycle;Signal;HPM_P1;HPM_P2
2024/02/05 00:00:10;;;;;;;;;1.50;1.00;;;;;11.35;77.02;99370.41;6329447;20;1801635;-47
2024/02/05 00:02:40;;;;;;;;;0.75;0.75;;;;;11.34;77.47;99353.38;6328469;20;1809803;-51
2024/02/05 00:05:10;;;;;;;;;1.00;1.00;;;;;11.27;77.87;99337.78;6314959;20;2728420;-51
2024/02/05 00:07:39;;;;;;;;;0.00;0.00;;;;;11.43;77.34;99341.16;6296968;20;1805606;-48
2024/02/05 00:10:10;;;;;;;;;0.50;0.00;;;;;11.48;77.51;99359.63;6327994;20;1805596;-47
2024/02/05 00:12:38;;;;;;;;;0.00;0.00;;;;;11.46;77.91;99356.19;6328478;20;1803519;-49
2024/02/05 00:15:08;;;;;;;;;0.00;0.00;;;;;11.48;77.91;99349.75;6331240;20;1801135;-48
2024/02/05 00:17:37;;;;;;;;;0.75;0.75;;;;;11.48;78.37;99344.38;6328369;20;1805623;-47
2024/02/05 00:20:07;;;;;;;;;0.25;0.25;;;;;11.59;77.81;99355.22;6327046;20;1806695;-50
2024/02/05 00:22:36;;;;;;;;;1.00;1.00;;;;;11.43;78.97;99344.69;6326443;20;1807709;-46
2024/02/05 00:25:06;;;;;;;;;0.75;0.75;;;;;11.52;78.66;99340.47;6326948;20;1807704;-46
2024/02/05 00:27:34;;;;;;;;;1.00;1.00;;;;;11.52;78.91;99335.09;6327794;20;1802473;-45
2024/02/05 00:30:04;;;;;;;;;1.00;1.00;;;;;11.62;78.77;99343.38;6330051;20;1807677;-47
2024/02/05 00:32:32;;;;;;;;;0.00;0.00;;;;;11.57;78.80;99329.41;6328541;20;1802430;-49
2024/02/05 00:35:02;;;;;;;;;0.00;0.00;;;;;11.47;79.97;99320.28;6327071;20;1802473;-47
2024/02/05 00:37:31;;;;;;;;;0.50;0.50;;;;;11.59;79.53;99317.56;6329983;20;1801518;-47
2024/02/05 00:40:00;;;;;;;;;1.00;1.00;;;;;11.54;79.68;99324.25;6327805;20;1802477;-45
2024/02/05 00:42:29;;;;;;;;;2.00;1.00;;;;;11.45;80.32;99333.81;6329122;20;1803540;-47
2024/02/05 00:45:00;;;;;;;;;1.00;1.00;;;;;11.54;80.78;99326.94;6349932;20;2463864;-47
2024/02/05 00:47:29;;;;;;;;;1.50;1.50;;;;;11.55;80.89;99324.13;6314693;20;2724360;-48
2024/02/05 00:49:58;;;;;;;;;2.00;1.25;;;;;11.51;80.82;99322.66;6296013;20;1802920;-46
2024/02/05 00:52:28;;;;;;;;;1.00;1.00;;;;;11.45;81.05;99306.94;6324706;20;1800387;-47
2024/02/05 00:54:57;;;;;;;;;1.00;1.00;;;;;11.53;81.81;99320.72;6324883;20;1803512;-47
2024/02/05 00:57:26;;;;;;;;;2.00;2.00;;;;;11.45;82.32;99309.63;6327887;20;1809879;-50
2024/02/05 00:59:54;;;;;;;;;1.00;1.00;;;;;11.40;82.54;99309.09;6310501;20;2726360;-44
2024/02/05 01:02:23;;;;;;;;;2.00;2.00;;;;;11.30;83.49;99310.72;6283063;20;2735754;-47
2024/02/05 01:04:50;;;;;;;;;4.50;2.00;;;;;11.29;84.17;99301.78;6276954;20;2751481;-47
2024/02/05 01:07:19;;;;;;;;;1.00;1.00;;;;;11.32;84.57;99301.59;6297135;20;1807653;-46
2024/02/05 01:09:47;;;;;;;;;2.00;2.00;;;;;11.34;85.15;99290.72;6309841;20;2748243;-47
2024/02/05 01:12:16;;;;;;;;;2.00;2.00;;;;;11.31;85.35;99285.56;6281145;20;2742115;-48
2024/02/05 01:14:46;;;;;;;;;2.00;1.00;;;;;11.29;86.75;99282.13;6319188;20;2724360;-50
2024/02/05 01:17:16;;;;;;;;;6.00;3.00;;;;;11.19;87.50;99280.09;6297879;20;1811898;-49
2024/02/05 01:19:48;;;;;;;;;2.25;2.25;;;;;11.21;87.75;99272.75;6326588;20;1802486;-48
2024/02/05 01:22:16;;;;;;;;;2.00;2.00;;;;;11.18;88.57;99281.03;6312289;20;2744438;-50
2024/02/05 01:24:44;;;;;;;;;3.00;3.00;;;;;11.11;89.63;99281.59;6278672;20;2728486;-46
2024/02/05 01:27:12;;;;;;;;;4.75;2.00;;;;;11.08;90.17;99288.03;6295453;20;1810385;-45
2024/02/05 01:29:42;;;;;;;;;1.50;1.50;;;;;11.12;90.39;99277.94;6311667;20;2740019;-46
2024/02/05 01:32:11;;;;;;;;;3.25;3.00;;;;;10.97;91.39;99274.50;6290926;20;1807686;-48
2024/02/05 01:34:41;;;;;;;;;2.00;2.00;;;;;10.98;92.28;99268.19;6305982;20;2750304;-47
2024/02/05 01:37:10;;;;;;;;;2.00;2.00;;;;;10.92;92.75;99266.75;6280785;20;2744061;-48
2024/02/05 01:39:39;;;;;;;;;2.00;2.00;;;;;11.02;92.55;99269.66;6292352;20;1807815;-46
2024/02/05 01:42:07;;;;;;;;;2.00;2.00;;;;;10.97;92.93;99255.69;6311159;20;2740724;-48
2024/02/05 01:44:35;;;;;;;;;2.00;2.00;;;;;11.06;92.67;99273.88;6277156;20;2737839;-48
2024/02/05 01:47:04;;;;;;;;;2.00;2.00;;;;;10.96;93.92;99278.16;6277674;20;2739935;-46
2024/02/05 01:49:32;;;;;;;;;4.00;2.00;;;;;11.02;93.67;99282.25;6278434;20;2756542;-48
2024/02/05 01:52:09;;;;;;;;;2.00;2.00;;;;;11.06;94.01;99265.81;6294904;20;1809732;-45
2024/02/05 01:54:39;;;;;;;;;1.50;1.00;;;;;11.12;94.33;99257.31;6308140;20;2728482;-47
2024/02/05 01:57:11;;;;;;;;;2.00;2.00;;;;;10.92;95.49;99271.28;6277178;20;2735679;-44
2024/02/05 01:59:40;;;;;;;;;1.00;1.00;;;;;10.99;95.73;99256.44;6292876;20;1805603;-46
2024/02/05 02:02:08;;;;;;;;;2.00;2.00;;;;;11.02;95.84;99255.38;6305464;20;2746118;-45
2024/02/05 02:04:38;;;;;;;;;2.50;1.25;;;;;11.10;96.15;99256.56;6293780;20;1805580;-46
2024/02/05 02:07:08;;;;;;;;;1.00;1.00;;;;;11.10;96.55;99272.66;6313268;20;2720129;-47
2024/02/05 02:09:37;;;;;;;;;1.25;1.25;;;;;11.16;96.19;99283.00;6294514;20;1800312;-46
2024/02/05 02:12:06;;;;;;;;;1.00;1.00;;;;;11.18;96.39;99283.72;6325292;20;1796208;-46
2024/02/05 02:14:35;;;;;;;;;2.00;2.00;;;;;11.23;96.33;99282.56;6323268;20;1799415;-45
2024/02/05 02:17:03;;;;;;;;;2.00;2.00;;;;;11.28;96.02;99277.72;6311402;20;2746208;-49
2024/02/05 02:19:47;;;;;;;;;1.00;1.00;;;;;11.33;95.42;99264.81;6294244;20;1797195;-48
2024/02/05 02:22:38;;;;;;;;;1.75;1.75;;;;;11.19;96.85;99269.34;6326587;20;1803600;-46
2024/02/05 02:25:06;;;;;;;;;1.00;1.00;;;;;11.27;96.48;99274.19;6309193;20;2730246;-46
2024/02/05 02:27:38;;;;;;;;;2.00;1.00;;;;;11.26;96.54;99258.16;6292438;20;1799427;-46
2024/02/05 02:30:09;;;;;;;;;1.00;1.00;;;;;11.23;97.06;99269.13;6327165;20;1808202;-47
2024/02/05 02:33:24;;;;;;;;;1.00;1.00;;;;;11.34;96.17;99269.22;6324916;20;1803511;-47
2024/02/05 02:36:11;;;;;;;;;1.25;1.25;;;;;11.29;96.60;99266.00;6323619;20;1801884;-48
2024/02/05 02:39:19;;;;;;;;;2.00;2.00;;;;;11.11;97.53;99255.59;6324439;20;1806664;-47
2024/02/05 02:41:49;;;;;;;;;0.00;0.00;;;;;11.27;96.41;99255.38;6321452;20;1798764;-47
2024/02/05 02:44:19;;;;;;;;;1.00;1.00;;;;;11.24;96.02;99260.94;6323127;20;1797256;-48
2024/02/05 02:46:50;;;;;;;;;0.00;0.00;;;;;11.35;96.24;99257.50;6323287;20;1803463;-45
2024/02/05 02:49:18;;;;;;;;;1.00;1.00;;;;;11.15;96.95;99261.59;6321854;20;1798874;-47
2024/02/05 02:51:50;;;;;;;;;1.00;1.00;;;;;11.09;97.59;99243.25;6347824;20;2729978;-48
2024/02/05 02:54:18;;;;;;;;;1.00;1.00;;;;;11.17;97.01;99255.16;6327484;20;1803286;-48
2024/02/05 02:56:47;;;;;;;;;2.00;1.00;;;;;11.16;96.55;99244.50;6328995;20;1800353;-47
2024/02/05 02:59:14;;;;;;;;;2.00;2.00;;;;;11.16;96.56;99240.00;6313515;20;2734675;-46
2024/02/05 03:01:43;;;;;;;;;0.25;0.25;;;;;11.11;96.49;99244.84;6295209;20;1803465;-48
2024/02/05 03:04:12;;;;;;;;;1.00;1.00;;;;;11.18;96.68;99232.69;6326755;20;1803553;-46
2024/02/05 03:06:41;;;;;;;;;1.00;1.00;;;;;10.94;98.17;99221.00;6328080;20;1803492;-47
2024/02/05 03:09:10;;;;;;;;;0.75;0.75;;;;;10.97;98.36;99215.41;6325210;20;1805595;-45
2024/02/05 03:11:38;;;;;;;;;2.00;1.00;;;;;10.91;99.24;99223.91;6330894;20;1803131;-47
2024/02/05 03:14:06;;;;;;;;;0.50;0.00;;;;;10.87;100.00;99233.97;6313403;20;2730478;-46
2024/02/05 03:16:34;;;;;;;;;1.00;1.00;;;;;10.82;100.00;99230.78;6301142;20;1803599;-47
2024/02/05 03:19:03;;;;;;;;;1.00;1.00;;;;;10.82;100.00;99236.16;6330178;20;1803442;-46
2024/02/05 03:21:32;;;;;;;;;3.00;1.00;;;;;10.77;100.00;99231.09;6331140;20;1803486;-47
2024/02/05 03:24:01;;;;;;;;;1.00;1.00;;;;;10.69;100.00;99227.22;6328543;20;1803527;-47
2024/02/05 03:26:29;;;;;;;;;3.00;1.00;;;;;10.82;100.00;99220.06;6329196;20;1799990;-47
2024/02/05 03:28:58;;;;;;;;;1.00;1.00;;;;;10.67;100.00;99224.66;6330150;20;1805584;-45
2024/02/05 03:31:26;;;;;;;;;1.00;1.00;;;;;10.75;100.00;99227.66;6314287;20;2731686;-47
2024/02/05 03:33:54;;;;;;;;;2.50;1.75;;;;;10.74;100.00;99225.06;6296452;20;1809839;-46
2024/02/05 03:36:23;;;;;;;;;1.00;1.00;;;;;10.68;100.00;99231.72;6328548;20;1803590;-44
2024/02/05 03:38:51;;;;;;;;;2.00;2.00;;;;;10.80;100.00;99224.66;6329579;20;1802456;-50
2024/02/05 03:41:20;;;;;;;;;0.75;0.75;;;;;10.70;100.00;99240.53;6327173;20;1807531;-46
2024/02/05 03:43:49;;;;;;;;;3.25;1.00;;;;;10.60;100.00;99238.59;6326077;20;1802494;-45
2024/02/05 03:46:17;;;;;;;;;2.00;2.00;;;;;10.72;100.00;99254.72;6327966;20;1804600;-46
2024/02/05 03:48:55;;;;;;;;;1.00;1.00;;;;;10.73;100.00;99251.06;6331053;20;1809590;-47
2024/02/05 03:51:23;;;;;;;;;2.00;2.00;;;;;10.52;100.00;99250.72;6312953;20;2746111;-47
2024/02/05 03:53:51;;;;;;;;;2.00;2.00;;;;;10.77;100.00;99247.22;6278844;20;2752824;-47
2024/02/05 03:56:19;;;;;;;;;1.75;1.75;;;;;10.80;100.00;99256.88;6297410;20;1802418;-48
2024/02/05 03:58:50;;;;;;;;;3.00;3.00;;;;;10.69;100.00;99260.31;6310044;20;2748248;-45
2024/02/05 04:01:18;;;;;;;;;2.50;2.50;;;;;10.65;100.00;99264.16;6278438;20;2740992;-46
2024/02/05 04:03:46;;;;;;;;;3.00;2.00;;;;;10.58;100.00;99267.38;6278204;20;2744075;-45
2024/02/05 04:06:16;;;;;;;;;2.00;2.00;;;;;10.57;100.00;99277.25;6275385;20;2752347;-44
2024/02/05 04:08:44;;;;;;;;;4.00;2.00;;;;;10.50;100.00;99275.94;6280678;20;2752402;-46
2024/02/05 04:11:13;;;;;;;;;2.50;2.50;;;;;10.51;100.00;99267.81;6277909;20;2748252;-45
2024/02/05 04:13:41;;;;;;;;;4.00;2.50;;;;;10.66;100.00;99270.38;6279684;20;2727744;-46
2024/02/05 04:16:14;;;;;;;;;2.00;2.00;;;;;10.65;100.00;99264.16;6279836;20;2756533;-46
2024/02/05 04:18:41;;;;;;;;;2.00;2.00;;;;;10.62;100.00;99267.06;6283419;20;2737802;-46
2024/02/05 04:21:09;;;;;;;;;4.00;1.00;;;;;10.54;100.00;99259.53;6283051;20;2730249;-47
2024/02/05 04:23:37;;;;;;;;;2.50;2.50;;;;;10.64;100.00;99257.09;6280413;20;2751566;-45
2024/02/05 04:26:15;;;;;;;;;2.00;2.00;;;;;10.44;100.00;99254.91;6280763;20;2735813;-46
2024/02/05 04:28:43;;;;;;;;;3.00;3.00;;;;;10.55;100.00;99236.22;6279338;20;2725283;-45
2024/02/05 04:31:12;;;;;;;;;3.00;3.00;;;;;10.46;100.00;99240.41;6281754;20;2750312;-45
2024/02/05 04:33:41;;;;;;;;;4.25;4.00;;;;;10.52;100.00;99241.81;6294694;20;1811400;-48
2024/02/05 04:36:13;;;;;;;;;7.00;5.00;;;;;10.43;100.00;99239.78;6309896;20;2745083;-47
2024/02/05 04:38:42;;;;;;;;;3.00;3.00;;;;;10.25;100.00;99233.78;6281149;20;2753178;-45
2024/02/05 04:41:12;;;;;;;;;4.00;4.00;;;;;10.35;100.00;99228.66;6280868;20;2746124;-46
2024/02/05 04:43:42;;;;;;;;;4.50;4.50;;;;;10.30;100.00;99235.22;6279189;20;2745072;-46
2024/02/05 04:46:12;;;;;;;;;5.00;5.00;;;;;10.33;100.00;99221.59;6276520;20;2746192;-47
2024/02/05 04:48:40;;;;;;;;;4.00;4.00;;;;;10.07;100.00;99217.09;6279599;20;2751359;-45
2024/02/05 04:51:11;;;;;;;;;6.00;4.00;;;;;10.09;100.00;99212.50;6280070;20;2753420;-45
2024/02/05 04:53:42;;;;;;;;;4.00;4.00;;;;;10.26;100.00;99208.66;6278132;20;2754494;-47
2024/02/05 04:56:11;;;;;;;;;5.50;5.50;;;;;10.11;100.00;99211.44;6298767;20;1805586;-47
2024/02/05 04:58:40;;;;;;;;;6.00;5.00;;;;;9.85;100.00;99215.84;6308047;20;2753417;-45
2024/02/05 05:01:07;;;;;;;;;5.00;5.00;;;;;9.94;100.00;99216.22;6279260;20;2742979;-45
2024/02/05 05:03:39;;;;;;;;;5.00;4.00;;;;;9.93;100.00;99218.03;6279163;20;2731600;-45
2024/02/05 05:06:07;;;;;;;;;9.00;7.50;;;;;10.15;100.00;99206.72;6274814;20;2744159;-47
2024/02/05 05:08:35;;;;;;;;;6.00;6.00;;;;;9.77;100.00;99191.38;6277532;20;2748344;-47
2024/02/05 05:11:03;;;;;;;;;11.00;9.00;;;;;9.97;100.00;99202.59;6277378;20;2763832;-46
2024/02/05 05:13:31;;;;;;;;;21.00;18.00;;;;;10.11;100.00;99221.31;6275602;20;2848213;-47
2024/02/05 05:16:05;;;;;;;;;99.33;83.00;;;;;10.02;100.00;99225.44;6274368;20;3703454;-47
2024/02/05 05:18:32;;;;;;;;;12.50;11.00;;;;;9.81;100.00;99227.72;6275320;20;2789877;-46
2024/02/05 05:21:00;;;;;;;;;7.00;7.00;;;;;10.05;100.00;99224.38;6276618;20;2744033;-45
2024/02/05 05:23:28;;;;;;;;;8.00;6.50;;;;;10.13;100.00;99223.88;6279398;20;2737889;-48
2024/02/05 05:25:58;;;;;;;;;7.00;6.00;;;;;10.20;100.00;99228.72;6279792;20;2736735;-45
2024/02/05 05:28:30;;;;;;;;;9.60;9.00;;;;;10.05;100.00;99219.88;6300534;20;2750309;-45
2024/02/05 05:30:58;;;;;;;;;11.00;10.00;;;;;10.12;100.00;99225.72;6274921;20;2789994;-45
2024/02/05 05:33:28;;;;;;;;;12.00;10.20;;;;;9.95;100.00;99220.59;6300283;20;2794022;-46
2024/02/05 05:35:57;;;;;;;;;9.40;7.80;;;;;9.95;100.00;99234.00;6302935;20;2748193;-46
2024/02/05 05:38:27;;;;;;;;;9.40;9.40;;;;;9.89;100.00;99228.09;6333047;20;2769055;-46
2024/02/05 05:40:56;;;;;;;;;11.67;10.33;;;;;10.14;100.00;99241.69;6273979;20;2786790;-45
2024/02/05 05:43:24;;;;;;;;;7.00;6.50;;;;;9.86;100.00;99233.66;6307196;20;2428866;-46
2024/02/05 05:45:52;;;;;;;;;10.00;10.00;;;;;9.90;100.00;99245.06;6305436;20;2783750;-47
2024/02/05 05:48:20;;;;;;;;;9.50;9.00;;;;;10.04;100.00;99245.00;6279747;20;2756545;-47
2024/02/05 05:50:48;;;;;;;;;8.00;8.00;;;;;9.86;100.00;99243.53;6278642;20;2749223;-47
2024/02/05 05:53:16;;;;;;;;;12.00;10.50;;;;;9.95;100.00;99258.13;6277467;20;2790982;-46
2024/02/05 05:55:48;;;;;;;;;12.67;11.00;;;;;9.82;100.00;99250.91;6277077;20;2794173;-47
2024/02/05 05:58:19;;;;;;;;;11.20;11.20;;;;;9.83;100.00;99246.41;6328082;20;2794082;-49
2024/02/05 06:00:48;;;;;;;;;13.00;11.33;;;;;9.70;100.00;99253.53;6273262;20;3515978;-47
2024/02/05 06:03:16;;;;;;;;;10.00;10.00;;;;;9.73;100.00;99258.69;6303732;20;2787876;-47
2024/02/05 06:05:47;;;;;;;;;11.00;10.00;;;;;9.79;100.00;99253.78;6273255;20;2791050;-46
2024/02/05 06:08:17;;;;;;;;;10.20;10.00;;;;;9.71;100.00;99258.78;6330158;20;2796169;-46
2024/02/05 06:10:45;;;;;;;;;13.00;11.00;;;;;9.70;100.00;99254.38;6277523;20;2790924;-47
2024/02/05 06:13:13;;;;;;;;;13.00;11.00;;;;;9.66;100.00;99258.22;6277227;20;2790903;-47
2024/02/05 06:15:41;;;;;;;;;10.50;10.00;;;;;9.72;100.00;99255.16;6306652;20;2794266;-47
2024/02/05 06:18:09;;;;;;;;;5.50;5.50;;;;;9.82;100.00;99263.44;6281055;20;2736831;-45
2024/02/05 06:20:37;;;;;;;;;11.50;8.50;;;;;9.83;100.00;99273.22;6308048;20;2761743;-47
2024/02/05 06:23:05;;;;;;;;;10.00;10.00;;;;;9.89;100.00;99260.25;6278855;20;2778429;-46
2024/02/05 06:25:37;;;;;;;;;9.86;9.86;;;;;9.92;100.00;99269.06;6317111;20;1802391;-45
2024/02/05 06:28:05;;;;;;;;;11.00;11.00;;;;;9.88;100.00;99266.59;6306592;20;2507579;-47
2024/02/05 06:30:40;;;;;;;;;10.00;8.50;;;;;9.85;100.00;99274.84;6304485;20;2772188;-45
2024/02/05 06:33:08;;;;;;;;;8.00;8.00;;;;;10.04;100.00;99274.50;6275737;20;2740964;-46
2024/02/05 06:35:36;;;;;;;;;15.00;11.00;;;;;9.98;100.00;99279.38;6275671;20;2797232;-45
2024/02/05 06:38:05;;;;;;;;;10.00;9.00;;;;;10.04;100.00;99279.00;6272082;20;2769058;-46
2024/02/05 06:40:32;;;;;;;;;7.50;7.50;;;;;10.08;100.00;99281.38;6280186;20;2736738;-47
2024/02/05 06:43:00;;;;;;;;;6.00;5.00;;;;;10.10;100.00;99271.41;6275882;20;2739928;-47
2024/02/05 06:45:28;;;;;;;;;8.50;7.00;;;;;10.06;100.00;99271.72;6276812;20;2734692;-46
2024/02/05 06:48:00;;;;;;;;;7.50;7.50;;;;;10.08;100.00;99276.03;6307549;20;2744381;-47
2024/02/05 06:50:27;;;;;;;;;7.00;7.00;;;;;10.17;100.00;99269.19;6276678;20;2737792;-49
2024/02/05 06:52:55;;;;;;;;;9.00;7.00;;;;;10.38;100.00;99277.66;6276488;20;2727387;-46
2024/02/05 06:55:23;;;;;;;;;8.50;8.50;;;;;10.36;100.00;99276.03;6272380;20;2754759;-45
2024/02/05 06:57:55;;;;;;;;;7.86;7.86;;;;;10.28;100.00;99277.41;6317583;20;1793134;-45
2024/02/05 07:00:22;;;;;;;;;7.00;5.00;;;;;10.44;100.00;99271.00;6309944;20;2741028;-47
2024/02/05 07:02:50;;;;;;;;;9.50;6.50;;;;;10.61;100.00;99283.25;6276142;20;2750288;-47
2024/02/05 07:05:20;;;;;;;;;7.00;7.00;;;;;10.62;100.00;99280.47;6276791;20;2740935;-49
2024/02/05 07:07:48;;;;;;;;;7.00;7.00;;;;;10.57;100.00;99271.88;6275249;20;2737835;-48
2024/02/05 07:10:16;;;;;;;;;8.50;7.00;;;;;10.91;100.00;99281.16;6274511;20;2744482;-45
2024/02/05 07:12:44;;;;;;;;;5.00;5.00;;;;;10.93;100.00;99292.66;6278366;20;2734677;-46
2024/02/05 07:15:12;;;;;;;;;8.50;7.50;;;;;10.96;100.00;99280.84;6270418;20;2741977;-46
2024/02/05 07:17:43;;;;;;;;;5.00;5.00;;;;;10.99;98.79;99291.38;6277140;20;2748644;-49
2024/02/05 07:20:11;;;;;;;;;6.50;6.50;;;;;11.15;98.27;99286.63;6274380;20;2744039;-45
2024/02/05 07:22:41;;;;;;;;;6.00;6.00;;;;;11.77;94.04;99288.50;6298712;20;2743180;-48
2024/02/05 07:25:09;;;;;;;;;6.00;5.00;;;;;11.44;93.48;99294.47;6307898;20;2745110;-51
2024/02/05 07:27:37;;;;;;;;;4.00;4.00;;;;;11.39;94.05;99297.47;6274967;20;2754478;-46
2024/02/05 07:30:06;;;;;;;;;2.00;2.00;;;;;11.57;91.87;99289.94;6276556;20;2744170;-46
2024/02/05 07:32:34;;;;;;;;;3.00;3.00;;;;;11.85;89.34;99287.94;6276313;20;2752381;-47
2024/02/05 07:35:02;;;;;;;;;2.00;2.00;;;;;12.08;86.18;99292.53;6273216;20;2741958;-46
2024/02/05 07:37:30;;;;;;;;;4.00;3.00;;;;;12.22;83.86;99285.25;6282332;20;2637788;-46
2024/02/05 07:39:57;;;;;;;;;3.00;3.00;;;;;12.28;83.02;99285.63;6275674;20;2726345;-44
2024/02/05 07:42:25;;;;;;;;;1.00;1.00;;;;;12.25;82.27;99295.78;6275468;20;2727412;-46
2024/02/05 07:44:54;;;;;;;;;1.00;1.00;;;;;12.39;80.55;99286.66;6295401;20;1802467;-45
2024/02/05 07:47:22;;;;;;;;;1.00;1.00;;;;;12.41;80.97;99274.81;6329343;20;1798794;-45
2024/02/05 07:49:51;;;;;;;;;2.00;2.00;;;;;12.54;79.50;99290.88;6327110;20;1803593;-48
2024/02/05 07:52:18;;;;;;;;;1.50;1.00;;;;;12.94;77.30;99280.59;6314043;20;2732635;-47
2024/02/05 07:54:47;;;;;;;;;1.00;1.00;;;;;12.84;77.14;99282.28;6297139;20;1807134;-51
2024/02/05 07:57:18;;;;;;;;;1.00;1.00;;;;;13.05;77.38;99286.97;6329318;20;1795185;-50
2024/02/05 07:59:46;;;;;;;;;0.00;0.00;;;;;12.96;74.84;99275.94;6313990;20;2728500;-49
2024/02/05 08:02:15;;;;;;;;;1.00;1.00;;;;;12.99;73.99;99290.16;6297003;20;1802921;-52
2024/02/05 08:04:43;;;;;;;;;1.00;1.00;;;;;13.18;74.01;99275.09;6331593;20;1797932;-49
2024/02/05 08:07:11;;;;;;;;;2.00;2.00;;;;;13.18;72.25;99279.63;6313214;20;2729454;-50
2024/02/05 08:09:40;;;;;;;;;1.00;1.00;;;;;13.23;71.99;99290.91;6293584;20;1803538;-50
2024/02/05 08:12:08;;;;;;;;;1.00;1.00;;;;;13.16;71.45;99300.47;6310808;20;2728417;-52
2024/02/05 08:14:36;;;;;;;;;1.00;1.00;;;;;13.21;72.02;99298.25;6294255;20;1798332;-47
2024/02/05 08:17:05;;;;;;;;;1.00;1.00;;;;;13.23;71.02;99314.34;6326431;20;1803525;-49
2024/02/05 08:19:35;;;;;;;;;1.00;1.00;;;;;13.01;72.28;99315.16;6314039;20;2724238;-48
2024/02/05 08:22:04;;;;;;;;;1.00;1.00;;;;;13.06;72.01;99324.59;6297666;20;1803642;-50
2024/02/05 08:24:32;;;;;;;;;1.50;1.00;;;;;13.02;72.35;99333.88;6312437;20;2733727;-49
2024/02/05 08:27:00;;;;;;;;;2.00;1.00;;;;;12.93;72.01;99338.16;6280624;20;2738868;-47
2024/02/05 08:29:29;;;;;;;;;1.25;1.00;;;;;13.06;72.12;99329.09;6294580;20;1803550;-51
2024/02/05 08:31:58;;;;;;;;;3.50;1.00;;;;;13.08;71.37;99338.78;6308887;20;2727394;-46
2024/02/05 08:34:27;;;;;;;;;1.00;1.00;;;;;13.15;71.40;99340.03;6296649;20;1801026;-48
2024/02/05 08:36:56;;;;;;;;;0.75;0.75;;;;;13.12;70.67;99329.50;6327534;20;1802505;-48
2024/02/05 08:39:24;;;;;;;;;1.00;1.00;;;;;13.11;70.68;99353.88;6331483;20;1803103;-49
2024/02/05 08:41:52;;;;;;;;;2.00;2.00;;;;;13.26;70.11;99347.31;6311817;20;2746127;-51
2024/02/05 08:44:22;;;;;;;;;2.00;2.00;;;;;13.49;69.84;99347.38;6280168;20;2737904;-48
2024/02/05 08:46:50;;;;;;;;;11.00;9.00;;;;;13.44;69.68;99346.88;6275204;20;2768119;-49
2024/02/05 08:49:17;;;;;;;;;8.00;7.00;;;;;13.23;69.41;99344.84;6279994;20;2744013;-48
2024/02/05 08:51:45;;;;;;;;;8.00;8.00;;;;;13.28;68.95;99348.06;6278234;20;2740899;-52
2024/02/05 08:54:13;;;;;;;;;3.00;3.00;;;;;13.50;68.63;99366.09;6280681;20;2746148;-49
2024/02/05 08:56:41;;;;;;;;;1.00;1.00;;;;;13.25;69.02;99366.31;6278342;20;2731552;-48
2024/02/05 08:59:08;;;;;;;;;7.00;7.00;;;;;13.33;68.40;99356.66;6280984;20;2743043;-49
2024/02/05 09:01:36;;;;;;;;;4.00;1.00;;;;;13.31;68.58;99365.84;6280701;20;2733628;-51
2024/02/05 09:04:04;;;;;;;;;8.00;4.00;;;;;13.46;68.21;99370.03;6280665;20;2745083;-49
2024/02/05 09:06:32;;;;;;;;;3.00;3.00;;;;;13.49;68.25;99352.75;6280323;20;2746215;-46
2024/02/05 09:09:00;;;;;;;;;2.50;2.00;;;;;13.46;67.89;99358.41;6276708;20;2744070;-49
2024/02/05 09:11:31;;;;;;;;;1.00;1.00;;;;;13.55;67.65;99373.84;6281821;20;2727526;-51
2024/02/05 09:14:04;;;;;;;;;3.00;2.00;;;;;13.68;67.41;99358.41;6279413;20;2729504;-50
2024/02/05 09:16:31;;;;;;;;;2.00;1.00;;;;;13.81;66.39;99369.94;6281575;20;2726368;-49
2024/02/05 09:18:59;;;;;;;;;5.00;4.00;;;;;13.88;67.25;99377.56;6279717;20;2744175;-50
2024/02/05 09:21:27;;;;;;;;;2.50;2.00;;;;;13.66;67.30;99381.09;6279008;20;2748212;-50
2024/02/05 09:23:55;;;;;;;;;2.00;2.00;;;;;13.76;68.01;99376.69;6279348;20;2734772;-49
2024/02/05 09:26:22;;;;;;;;;3.50;2.00;;;;;13.64;66.60;99377.66;6280293;20;2730510;-48
2024/02/05 09:28:50;;;;;;;;;1.00;1.00;;;;;13.58;65.75;99379.00;6281601;20;2726901;-47
2024/02/05 09:31:18;;;;;;;;;1.00;1.00;;;;;13.46;66.16;99374.59;6277771;20;2728400;-50
2024/02/05 09:33:47;;;;;;;;;2.00;2.00;;;;;13.60;65.71;99382.44;6295718;20;1801576;-51
2024/02/05 09:36:14;;;;;;;;;0.00;0.00;;;;;13.72;64.71;99376.06;6310082;20;2727390;-48
2024/02/05 09:38:43;;;;;;;;;2.00;2.00;;;;;13.60;64.44;99377.91;6294761;20;1805591;-51
2024/02/05 09:41:20;;;;;;;;;2.25;1.00;;;;;13.58;64.25;99387.09;6323853;20;1804535;-51
2024/02/05 09:43:50;;;;;;;;;1.00;1.00;;;;;13.70;64.12;99399.63;6308047;20;2735833;-47
2024/02/05 09:46:22;;;;;;;;;1.00;1.00;;;;;13.57;63.82;99406.97;6280174;20;3441913;-50
2024/02/05 09:48:52;;;;;;;;;1.00;1.00;;;;;13.92;62.95;99420.34;6280188;20;2726459;-49
2024/02/05 09:51:22;;;;;;;;;2.00;2.00;;;;;13.94;63.37;99409.44;6279063;20;2740940;-48
2024/02/05 09:53:50;;;;;;;;;1.00;1.00;;;;;13.62;63.56;99407.47;6279790;20;2723260;-48
2024/02/05 09:56:28;;;;;;;;;0.50;0.50;;;;;13.65;63.31;99404.50;6280058;20;2731613;-49
2024/02/05 09:58:57;;;;;;;;;0.00;0.00;;;;;13.55;63.73;99408.91;6281231;20;2727424;-49
2024/02/05 10:01:26;;;;;;;;;2.00;1.00;;;;;13.74;62.97;99409.16;6280192;20;2727506;-48
2024/02/05 10:03:56;;;;;;;;;3.00;0.00;;;;;13.70;61.99;99393.38;6273971;20;2729487;-51
2024/02/05 10:06:33;;;;;;;;;2.00;2.00;;;;;13.95;63.05;99403.03;6277589;20;2744049;-47
2024/02/05 10:09:06;;;;;;;;;3.00;1.00;;;;;13.76;61.79;99393.72;6279257;20;2735825;-48
2024/02/05 10:11:43;;;;;;;;;3.50;1.50;;;;;14.00;61.38;99400.84;6280327;20;2733736;-49
2024/02/05 10:14:11;;;;;;;;;2.00;0.00;;;;;14.41;60.55;99408.28;6277770;20;2727437;-48
2024/02/05 10:16:40;;;;;;;;;0.75;0.00;;;;;14.24;60.24;99403.41;6296137;20;1799847;-50
2024/02/05 10:19:07;;;;;;;;;0.00;0.00;;;;;14.66;59.53;99412.53;6311619;20;2729420;-50
2024/02/05 10:21:35;;;;;;;;;2.00;2.00;;;;;14.68;58.84;99396.22;6279676;20;2737777;-48
2024/02/05 10:24:03;;;;;;;;;1.50;0.50;;;;;14.61;58.01;99398.59;6278440;20;2738428;-47
2024/02/05 10:26:31;;;;;;;;;0.50;0.50;;;;;14.93;57.88;99403.16;6279350;20;2731708;-46
2024/02/05 10:29:08;;;;;;;;;1.00;0.00;;;;;14.59;58.20;99402.41;6281198;20;2729529;-45
2024/02/05 10:31:49;;;;;;;;;1.00;1.00;;;;;15.01;57.13;99380.84;6281779;20;2729467;-47
2024/02/05 10:34:24;;;;;;;;;0.50;0.50;;;;;14.63;58.03;99391.19;6279619;20;2727346;-47
2024/02/05 10:36:53;;;;;;;;;0.00;0.00;;;;;14.76;57.79;99392.88;6281229;20;2727423;-46
2024/02/05 10:39:24;;;;;;;;;0.00;0.00;;;;;14.84;57.54;99388.53;6278448;20;2730638;-48
2024/02/05 10:41:54;;;;;;;;;3.00;3.00;;;;;15.05;57.30;99396.69;6274940;20;2741037;-46
2024/02/05 10:44:23;;;;;;;;;0.00;0.00;;;;;15.04;56.41;99413.03;6275459;20;2731532;-45
2024/02/05 10:47:11;;;;;;;;;0.00;0.00;;;;;15.17;56.00;99399.34;6280609;20;2728402;-44
2024/02/05 10:49:39;;;;;;;;;0.00;0.00;;;;;15.18;55.68;99387.53;6283252;20;2733628;-45
2024/02/05 10:52:08;;;;;;;;;0.00;0.00;;;;;15.07;55.69;99373.06;6280609;20;2729418;-46
2024/02/05 10:54:41;;;;;;;;;0.50;0.50;;;;;15.00;56.62;99396.19;6291308;20;1802947;-46
2024/02/05 10:57:10;;;;;;;;;0.00;0.00;;;;;14.58;57.05;99381.75;6310001;20;2733602;-47
2024/02/05 10:59:38;;;;;;;;;0.00;0.00;;;;;14.92;56.36;99382.47;6277199;20;2727338;-44
2024/02/05 11:02:25;;;;;;;;;0.00;0.00;;;;;14.52;57.16;99372.28;6275922;20;2729616;-48
2024/02/05 11:04:56;;;;;;;;;0.00;0.00;;;;;14.75;57.65;99370.41;6278772;20;2727415;-44
2024/02/05 11:07:31;;;;;;;;;0.00;0.00;;;;;14.98;57.08;99379.28;6280088;20;2726792;-46
2024/02/05 11:10:05;;;;;;;;;1.00;1.00;;;;;15.42;55.88;99385.41;6276234;20;2728410;-44
2024/02/05 11:12:33;;;;;;;;;0.00;0.00;;;;;15.35;55.12;99349.94;6278953;20;2731638;-46
2024/02/05 11:15:09;;;;;;;;;0.00;0.00;;;;;15.40;55.22;99376.56;6279097;20;2727483;-44
2024/02/05 11:17:38;;;;;;;;;2.00;1.00;;;;;15.34;54.84;99380.66;6285837;20;2728613;-44
2024/02/05 11:20:11;;;;;;;;;1.50;1.00;;;;;15.28;54.98;99377.63;6281373;20;2729581;-45
2024/02/05 11:22:43;;;;;;;;;0.00;0.00;;;;;15.28;54.37;99383.06;6281913;20;2729485;-45
2024/02/05 11:25:14;;;;;;;;;1.50;1.50;;;;;15.35;54.02;99354.50;6296732;20;1798296;-43